Time;durP1;ratioP1;P1;durP2;ratioP2;P2;SDS_P1;SDS_P2;PMS_P1;PMS_P2;Temp;Humidity;BMP_temperature;BMP_pressure;BME280_temperature;BME280_humidity;BME280_pressure;Samples;Min_cycle;Max_cycle;Signal;HPM_P1;HPM_P2
2023/06/18 00:01:21;;;;;;;5.40;4.85;;;23.00;54.00;;;;;;10322560;28;20020;-61
2023/06/18 00:06:22;;;;;;;4.93;4.43;;;23.00;54.10;;;;;;10307286;28;20524;-62
2023/06/18 00:11:22;;;;;;;5.82;4.85;;;23.00;54.10;;;;;;10323223;28;20026;-62
2023/06/18 00:16:23;;;;;;;6.97;6.22;;;23.00;54.10;;;;;;10339535;28;20028;-62
2023/06/18 00:21:24;;;;;;;6.00;4.78;;;23.00;54.30;;;;;;10325060;28;20102;-61
2023/06/18 00:26:25;;;;;;;5.60;5.00;;;23.00;54.40;;;;;;10324314;28;20106;-62
2023/06/18 00:31:26;;;;;;;6.03;4.93;;;23.00;54.40;;;;;;10320290;28;20019;-61
2023/06/18 00:36:29;;;;;;;5.63;4.97;;;23.00;54.40;;;;;;10319991;28;20034;-61
2023/06/18 00:41:32;;;;;;;6.40;5.53;;;23.00;54.30;;;;;;10322696;28;20809;-62
2023/06/18 00:46:35;;;;;;;6.20;4.72;;;23.00;54.40;;;;;;10323938;28;20053;-62
2023/06/18 00:51:35;;;;;;;5.63;4.82;;;23.00;54.40;;;;;;10306326;28;20015;-61
2023/06/18 00:56:37;;;;;;;6.05;4.65;;;23.00;54.60;;;;;;10323860;28;20034;-61
2023/06/18 01:01:38;;;;;;;5.47;4.97;;;22.90;54.50;;;;;;10308642;28;20034;-61
2023/06/18 01:06:39;;;;;;;5.97;5.13;;;22.90;54.50;;;;;;10331530;28;20019;-61
2023/06/18 01:11:40;;;;;;;5.20;4.60;;;23.00;54.60;;;;;;10330395;28;20077;-60
2023/06/18 01:16:45;;;;;;;6.05;5.45;;;22.90;54.50;;;;;;10346100;28;20022;-62
2023/06/18 01:21:53;;;;;;;5.90;5.03;;;23.00;54.60;;;;;;10329934;28;20544;-62
2023/06/18 01:26:56;;;;;;;7.43;5.90;;;22.90;54.60;;;;;;10328029;28;20401;-61
2023/06/18 01:31:57;;;;;;;7.25;5.30;;;23.00;54.70;;;;;;10329414;28;20492;-62
2023/06/18 01:37:50;;;;;;;6.18;5.18;;;22.90;54.80;;;;;;10330401;28;20057;-62
2023/06/18 01:43:31;;;;;;;5.32;4.82;;;22.90;54.80;;;;;;10315542;28;20049;-63
2023/06/18 01:48:39;;;;;;;5.90;5.30;;;22.90;54.80;;;;;;10280996;28;20049;-62
2023/06/18 01:53:41;;;;;;;6.93;4.97;;;22.90;54.90;;;;;;10313122;28;20019;-62
2023/06/18 01:58:44;;;;;;;6.20;5.57;;;22.90;54.90;;;;;;10322245;28;20486;-61
2023/06/18 02:03:44;;;;;;;7.65;5.88;;;22.90;55.00;;;;;;10309297;28;20041;-61
2023/06/18 02:08:45;;;;;;;5.80;5.20;;;22.90;55.00;;;;;;10328764;28;20034;-61
2023/06/18 02:13:46;;;;;;;5.72;4.50;;;22.90;55.10;;;;;;10329003;28;20339;-61
2023/06/18 02:18:47;;;;;;;6.28;5.28;;;22.90;55.10;;;;;;10309893;28;20634;-62
2023/06/18 02:23:47;;;;;;;5.82;4.88;;;22.90;55.10;;;;;;10327523;28;20113;-61
2023/06/18 02:28:48;;;;;;;6.03;5.22;;;22.90;55.20;;;;;;10328596;28;20105;-62
2023/06/18 02:33:49;;;;;;;6.20;5.60;;;22.90;55.20;;;;;;10314308;28;20098;-62
2023/06/18 02:38:52;;;;;;;6.32;4.82;;;22.90;55.20;;;;;;10328256;28;20125;-62
2023/06/18 02:43:53;;;;;;;7.90;5.95;;;22.90;55.30;;;;;;10310916;28;20030;-62
2023/06/18 02:48:53;;;;;;;6.07;5.47;;;22.90;55.30;;;;;;10326294;28;20026;-61
2023/06/18 02:53:54;;;;;;;5.82;4.78;;;22.90;55.30;;;;;;10327837;28;20028;-62
2023/06/18 02:58:58;;;;;;;7.32;4.97;;;22.80;55.30;;;;;;10326365;28;20022;-61
2023/06/18 03:03:59;;;;;;;7.70;5.32;;;22.80;55.30;;;;;;10320594;28;20068;-61
2023/06/18 03:09:02;;;;;;;7.20;5.15;;;22.80;55.30;;;;;;10323854;28;20023;-61
2023/06/18 03:14:02;;;;;;;7.80;6.05;;;22.80;55.30;;;;;;10326409;28;20022;-61
2023/06/18 03:19:03;;;;;;;6.45;5.57;;;22.80;55.30;;;;;;10297009;28;20049;-62
2023/06/18 03:24:04;;;;;;;7.03;5.55;;;22.80;55.30;;;;;;10325690;28;20466;-62
2023/06/18 03:29:05;;;;;;;6.68;5.35;;;22.80;55.30;;;;;;10315644;28;20026;-61
2023/06/18 03:34:07;;;;;;;5.97;5.32;;;22.80;55.30;;;;;;10316531;28;20026;-60
2023/06/18 03:39:11;;;;;;;6.65;5.38;;;22.80;55.30;;;;;;10325786;28;20124;-62
2023/06/18 03:44:11;;;;;;;5.90;5.30;;;22.80;55.30;;;;;;10305146;28;21160;-62
2023/06/18 03:49:12;;;;;;;6.72;6.13;;;22.80;55.30;;;;;;10325480;28;20015;-62
2023/06/18 03:54:13;;;;;;;5.72;5.22;;;22.80;55.20;;;;;;10324131;28;20081;-64
2023/06/18 03:59:14;;;;;;;6.20;4.93;;;22.80;55.20;;;;;;10307981;28;20026;-61
2023/06/18 04:04:15;;;;;;;6.05;5.43;;;22.70;55.20;;;;;;10325172;28;20054;-61
2023/06/18 04:09:15;;;;;;;5.75;4.88;;;22.80;55.20;;;;;;10314139;28;20018;-61
2023/06/18 04:14:16;;;;;;;5.97;5.25;;;22.80;55.20;;;;;;10311284;28;20030;-60
2023/06/18 04:19:17;;;;;;;7.85;6.07;;;22.70;55.10;;;;;;10312428;28;20050;-60
2023/06/18 04:24:17;;;;;;;8.02;5.55;;;22.70;55.10;;;;;;10304569;28;20019;-61
2023/06/18 04:29:18;;;;;;;6.25;5.65;;;22.70;55.10;;;;;;10320995;28;20084;-60
2023/06/18 04:34:19;;;;;;;6.05;5.30;;;22.80;55.20;;;;;;10337838;28;20477;-61
2023/06/18 04:39:20;;;;;;;6.82;6.05;;;22.80;55.20;;;;;;10320245;28;20046;-61
2023/06/18 04:44:20;;;;;;;6.95;5.47;;;22.70;55.20;;;;;;10318238;28;20057;-63
2023/06/18 04:49:21;;;;;;;6.45;5.30;;;22.70;55.20;;;;;;10303479;28;20542;-60
2023/06/18 04:54:22;;;;;;;7.00;5.95;;;22.80;55.30;;;;;;10322342;28;20109;-55
2023/06/18 04:59:24;;;;;;;7.10;5.25;;;22.80;55.10;;;;;;10337789;28;20038;-59
2023/06/18 05:04:25;;;;;;;9.23;5.63;;;22.80;55.20;;;;;;10322354;28;20033;-59
2023/06/18 05:09:27;;;;;;;6.57;5.72;;;22.70;55.30;;;;;;10323206;28;20122;-59
2023/06/18 05:14:27;;;;;;;8.02;6.13;;;22.70;55.40;;;;;;10309248;28;20018;-58
2023/06/18 05:19:28;;;;;;;7.05;5.15;;;22.80;55.40;;;;;;10323040;28;20125;-57
2023/06/18 05:24:29;;;;;;;8.45;6.53;;;22.80;56.10;;;;;;10323101;28;20097;-58
2023/06/18 05:29:29;;;;;;;9.38;6.60;;;22.80;55.40;;;;;;10321602;28;20678;-56
2023/06/18 05:34:30;;;;;;;16.92;5.88;;;22.80;55.60;;;;;;10322108;28;20050;-61
2023/06/18 05:39:31;;;;;;;8.82;5.63;;;22.80;56.50;;;;;;10321408;28;20046;-60
2023/06/18 05:44:32;;;;;;;7.47;5.80;;;22.90;55.80;;;;;;10323986;28;20045;-60
2023/06/18 05:49:32;;;;;;;8.45;5.65;;;22.90;56.40;;;;;;10329988;28;20026;-61
2023/06/18 05:54:33;;;;;;;9.90;5.93;;;22.90;56.80;;;;;;10328529;28;20109;-62
2023/06/18 05:59:34;;;;;;;18.55;6.68;;;22.90;56.90;;;;;;10328140;28;20030;-61
2023/06/18 06:04:35;;;;;;;22.25;6.88;;;22.90;57.50;;;;;;10327879;28;20584;-61
2023/06/18 06:09:35;;;;;;;13.02;7.20;;;23.00;57.20;;;;;;10329119;28;20701;-62
2023/06/18 06:14:36;;;;;;;28.08;9.38;;;23.00;57.20;;;;;;10327463;28;20105;-62
2023/06/18 06:19:37;;;;;;;28.77;10.15;;;23.00;57.00;;;;;;10328831;28;20117;-63
2023/06/18 06:24:38;;;;;;;34.30;7.80;;;22.90;57.10;;;;;;10328793;28;20117;-60
2023/06/18 06:29:38;;;;;;;26.13;8.13;;;23.00;57.40;;;;;;10328526;28;20023;-61
2023/06/18 06:34:40;;;;;;;16.83;7.82;;;23.00;57.50;;;;;;10328477;28;20102;-62
2023/06/18 06:39:41;;;;;;;16.80;7.65;;;23.00;58.30;;;;;;10326537;28;20050;-63
2023/06/18 06:44:42;;;;;;;19.33;7.97;;;23.00;57.40;;;;;;10324587;28;20631;-63
2023/06/18 06:49:44;;;;;;;15.68;7.93;;;23.00;57.20;;;;;;10326682;28;20015;-63
2023/06/18 06:54:47;;;;;;;20.08;9.18;;;23.00;57.20;;;;;;10327651;28;20544;-64
2023/06/18 06:59:47;;;;;;;19.48;8.82;;;23.00;57.40;;;;;;10327156;28;20034;-63
2023/06/18 07:04:48;;;;;;;20.60;9.02;;;23.00;57.50;;;;;;10326800;28;20081;-62
2023/06/18 07:09:49;;;;;;;29.95;9.65;;;23.10;57.60;;;;;;10325611;28;20014;-62
2023/06/18 07:14:50;;;;;;;19.33;7.95;;;23.00;57.30;;;;;;10327226;28;20093;-62
2023/06/18 07:19:52;;;;;;;28.98;8.93;;;23.10;56.90;;;;;;10326716;28;20045;-56
2023/06/18 07:24:56;;;;;;;29.42;8.27;;;23.10;56.80;;;;;;10326709;28;20476;-59
2023/06/18 07:29:57;;;;;;;15.63;6.95;;;23.20;56.70;;;;;;10325298;28;20038;-63
2023/06/18 07:34:57;;;;;;;17.15;8.05;;;23.20;57.00;;;;;;10323033;28;20586;-61
2023/06/18 07:39:58;;;;;;;16.60;7.88;;;23.30;57.20;;;;;;10321294;28;20033;-62
2023/06/18 07:44:59;;;;;;;24.02;8.23;;;23.30;58.20;;;;;;10325762;28;20015;-64
2023/06/18 07:50:00;;;;;;;17.80;7.38;;;23.30;58.90;;;;;;10325483;28;20046;-61
2023/06/18 07:55:00;;;;;;;16.77;7.57;;;23.30;58.80;;;;;;10298544;28;20058;-60
2023/06/18 08:00:01;;;;;;;14.20;8.30;;;23.30;58.60;;;;;;10315862;28;20041;-58
2023/06/18 08:05:02;;;;;;;16.08;7.88;;;23.30;58.60;;;;;;10325056;28;20651;-62
2023/06/18 08:10:04;;;;;;;10.93;7.68;;;23.20;58.30;;;;;;10323331;28;20102;-61
2023/06/18 08:15:05;;;;;;;13.10;7.53;;;23.20;58.50;;;;;;10322872;28;20046;-66
2023/06/18 08:20:07;;;;;;;14.15;7.55;;;23.10;58.50;;;;;;10323349;28;20041;-61
2023/06/18 08:25:07;;;;;;;14.48;7.70;;;23.10;58.20;;;;;;10324321;28;20030;-62
2023/06/18 08:30:08;;;;;;;12.45;8.15;;;23.10;58.50;;;;;;10320572;28;20110;-61
2023/06/18 08:35:09;;;;;;;8.85;7.13;;;23.10;58.30;;;;;;10319245;28;20486;-62
2023/06/18 08:40:14;;;;;;;11.98;7.70;;;23.10;58.00;;;;;;10321579;28;20088;-64
2023/06/18 08:45:14;;;;;;;9.25;6.95;;;23.10;58.10;;;;;;10337404;28;20109;-62
2023/06/18 08:50:19;;;;;;;27.05;8.98;;;23.10;57.60;;;;;;10320407;28;20018;-60
2023/06/18 08:55:20;;;;;;;13.07;8.10;;;23.10;57.50;;;;;;10315628;28;20076;-63
2023/06/18 09:00:21;;;;;;;25.65;8.95;;;23.20;58.00;;;;;;10318584;28;20030;-62
2023/06/18 09:05:23;;;;;;;13.63;7.80;;;23.20;57.50;;;;;;10319242;28;20015;-60
2023/06/18 09:10:25;;;;;;;13.38;8.77;;;23.20;57.10;;;;;;10319372;28;20023;-58
2023/06/18 09:15:26;;;;;;;15.35;7.80;;;23.20;57.50;;;;;;10319446;28;20022;-61
2023/06/18 09:20:27;;;;;;;14.38;8.68;;;23.20;57.30;;;;;;10323894;28;20038;-59
2023/06/18 09:25:28;;;;;;;10.40;8.23;;;23.20;56.90;;;;;;10322073;28;20161;-60
2023/06/18 09:30:29;;;;;;;12.38;8.48;;;23.10;56.10;;;;;;10324792;28;20734;-62
2023/06/18 09:35:30;;;;;;;15.90;7.78;;;23.20;56.10;;;;;;10313917;28;20058;-62
2023/06/18 09:40:33;;;;;;;14.68;7.82;;;23.20;56.10;;;;;;10326969;28;20066;-60
2023/06/18 09:45:33;;;;;;;12.70;8.18;;;23.30;56.70;;;;;;10320218;28;20015;-58
2023/06/18 09:50:34;;;;;;;13.32;8.48;;;23.40;56.40;;;;;;10325964;28;20058;-59
2023/06/18 09:55:35;;;;;;;12.57;7.75;;;23.40;56.60;;;;;;10326652;28;20030;-60
2023/06/18 10:00:36;;;;;;;15.75;8.02;;;23.40;56.10;;;;;;10328243;28;20470;-59
2023/06/18 10:05:37;;;;;;;15.90;8.35;;;23.40;56.60;;;;;;10329768;28;20061;-63
2023/06/18 10:10:40;;;;;;;14.43;7.90;;;23.40;56.80;;;;;;10329039;28;20069;-61
2023/06/18 10:15:42;;;;;;;10.95;7.75;;;23.40;56.60;;;;;;10326655;28;20050;-60
2023/06/18 10:20:43;;;;;;;19.88;8.98;;;23.40;55.90;;;;;;10315793;28;20026;-59
2023/06/18 10:25:45;;;;;;;11.45;7.70;;;23.30;55.60;;;;;;10327695;28;20393;-59
2023/06/18 10:30:46;;;;;;;16.80;7.47;;;23.30;55.90;;;;;;10328116;28;20365;-60
2023/06/18 10:35:48;;;;;;;12.98;8.18;;;23.30;56.20;;;;;;10319331;28;20050;-59
2023/06/18 10:41:08;;;;;;;16.92;7.00;;;23.30;55.60;;;;;;10297371;28;20018;-60
2023/06/18 10:46:11;;;;;;;12.15;6.97;;;23.30;55.50;;;;;;10322324;28;20022;-61
2023/06/18 10:51:18;;;;;;;13.75;6.97;;;23.30;56.70;;;;;;10336645;28;20069;-59
2023/06/18 10:56:21;;;;;;;12.00;7.15;;;23.30;56.10;;;;;;10325101;28;20022;-59
2023/06/18 11:01:26;;;;;;;10.02;6.72;;;23.40;55.60;;;;;;10326122;28;20026;-56
2023/06/18 11:06:30;;;;;;;13.88;8.60;;;23.60;55.30;;;;;;10322723;28;20022;-59
2023/06/18 11:11:32;;;;;;;11.48;7.70;;;23.80;55.70;;;;;;10322951;28;20097;-60
2023/06/18 11:16:33;;;;;;;20.10;8.85;;;24.00;56.30;;;;;;10323073;28;20030;-61
2023/06/18 11:21:35;;;;;;;13.40;8.32;;;24.10;56.40;;;;;;10330800;28;20121;-65
2023/06/18 11:26:36;;;;;;;13.40;9.48;;;24.20;56.40;;;;;;10325352;28;20382;-60
2023/06/18 11:31:37;;;;;;;15.30;9.88;;;24.30;56.70;;;;;;10325019;28;20027;-60
2023/06/18 11:36:41;;;;;;;12.48;10.80;;;24.40;56.80;;;;;;10340904;28;20137;-60
2023/06/18 11:41:41;;;;;;;13.27;9.88;;;24.40;57.00;;;;;;10310065;28;20105;-58
2023/06/18 11:46:42;;;;;;;16.08;10.55;;;24.50;56.80;;;;;;10321081;28;20474;-60
2023/06/18 11:51:43;;;;;;;13.73;10.48;;;24.50;57.50;;;;;;10324956;28;20101;-57
2023/06/18 11:56:45;;;;;;;13.30;10.23;;;24.30;58.30;;;;;;10313979;28;20029;-62
2023/06/18 12:01:46;;;;;;;16.60;10.45;;;24.20;58.80;;;;;;10322361;28;20691;-59
2023/06/18 12:06:47;;;;;;;10.65;9.18;;;24.20;58.60;;;;;;10324040;28;20771;-60
2023/06/18 12:12:24;;;;;;;15.43;9.82;;;24.00;58.70;;;;;;10320920;28;20038;-59
2023/06/18 12:17:50;;;;;;;15.43;9.35;;;23.90;59.00;;;;;;10309810;28;20043;-62
2023/06/18 12:22:51;;;;;;;13.30;9.38;;;24.00;59.30;;;;;;10312968;28;20484;-56
2023/06/18 12:27:53;;;;;;;12.88;9.40;;;24.00;58.90;;;;;;10323371;28;20129;-58
2023/06/18 12:33:11;;;;;;;13.02;8.57;;;23.90;59.50;;;;;;10294152;28;20015;-60
2023/06/18 12:38:11;;;;;;;14.52;9.05;;;23.80;59.00;;;;;;10334056;28;20093;-61
2023/06/18 12:43:13;;;;;;;13.57;8.88;;;23.80;59.20;;;;;;10324121;28;20025;-58
2023/06/18 12:48:24;;;;;;;13.95;9.30;;;23.80;59.00;;;;;;10321542;28;20307;-57
2023/06/18 12:53:28;;;;;;;11.43;8.38;;;23.80;59.00;;;;;;10321336;28;20026;-59
2023/06/18 12:58:34;;;;;;;12.63;8.30;;;23.70;59.00;;;;;;10325708;28;20031;-59
2023/06/18 13:03:35;;;;;;;9.32;7.20;;;23.70;59.00;;;;;;10311186;28;20022;-58
2023/06/18 13:08:36;;;;;;;10.80;8.20;;;23.60;59.00;;;;;;10311374;28;20038;-59
2023/06/18 13:13:36;;;;;;;13.35;9.30;;;23.60;59.00;;;;;;10329139;28;20023;-59
2023/06/18 13:18:37;;;;;;;14.43;8.10;;;23.60;59.00;;;;;;10328817;28;20096;-59
2023/06/18 13:23:38;;;;;;;12.07;8.35;;;23.60;59.00;;;;;;10328725;28;20065;-59
2023/06/18 13:28:38;;;;;;;11.15;8.52;;;23.60;58.90;;;;;;10326685;28;20125;-57
2023/06/18 13:33:40;;;;;;;11.70;7.68;;;23.60;58.90;;;;;;10329072;28;20105;-58
2023/06/18 13:38:41;;;;;;;10.02;7.65;;;23.60;59.00;;;;;;10315876;28;20115;-60
2023/06/18 13:43:41;;;;;;;9.80;7.68;;;23.60;58.90;;;;;;10327305;28;20083;-60
2023/06/18 13:48:42;;;;;;;11.98;9.05;;;23.70;59.10;;;;;;10328873;28;20030;-59
2023/06/18 13:53:43;;;;;;;18.98;8.63;;;23.70;59.10;;;;;;10328901;28;20106;-58
2023/06/18 13:58:43;;;;;;;22.38;9.23;;;23.60;59.10;;;;;;10330283;28;20126;-61
2023/06/18 14:03:44;;;;;;;18.90;8.68;;;23.80;59.60;;;;;;10329446;28;20030;-58
2023/06/18 14:08:45;;;;;;;14.77;8.73;;;23.90;59.50;;;;;;10327876;28;20033;-57
2023/06/18 14:13:45;;;;;;;19.65;8.75;;;23.80;60.20;;;;;;10329422;28;20022;-60
2023/06/18 14:18:48;;;;;;;18.88;8.27;;;23.90;60.30;;;;;;10328917;28;20109;-59
2023/06/18 14:23:52;;;;;;;19.40;8.40;;;24.00;60.00;;;;;;10327018;28;20019;-59
2023/06/18 14:28:52;;;;;;;22.40;9.07;;;24.00;59.90;;;;;;10325019;28;20049;-60
2023/06/18 14:33:53;;;;;;;11.50;8.80;;;24.00;59.70;;;;;;10324078;28;20097;-60
2023/06/18 14:38:54;;;;;;;19.73;8.70;;;24.00;59.60;;;;;;10323790;28;20042;-57
2023/06/18 14:43:54;;;;;;;17.27;8.93;;;23.90;59.20;;;;;;10301102;28;20121;-59
2023/06/18 14:48:55;;;;;;;14.50;8.23;;;23.90;59.50;;;;;;10328419;28;20471;-59
2023/06/18 14:54:11;;;;;;;12.05;8.70;;;23.90;59.70;;;;;;10303993;28;20034;-58
2023/06/18 14:59:12;;;;;;;13.00;7.68;;;23.90;58.50;;;;;;10327488;28;20339;-58
2023/06/18 15:04:12;;;;;;;11.60;8.10;;;23.90;57.60;;;;;;10295193;28;20018;-57
2023/06/18 15:09:13;;;;;;;13.70;8.25;;;23.90;57.00;;;;;;10316606;28;20014;-58
2023/06/18 15:14:14;;;;;;;12.60;8.02;;;23.90;57.00;;;;;;10324136;28;20401;-58
2023/06/18 15:19:15;;;;;;;12.90;7.97;;;24.00;57.90;;;;;;10324317;28;20031;-62
2023/06/18 15:24:16;;;;;;;13.40;8.40;;;24.20;57.20;;;;;;10314129;28;20022;-58
2023/06/18 15:29:17;;;;;;;14.82;7.88;;;24.30;57.80;;;;;;10317012;28;20029;-57
2023/06/18 15:34:18;;;;;;;16.70;8.65;;;24.40;59.10;;;;;;10316935;28;20109;-61
2023/06/18 15:39:19;;;;;;;13.70;9.23;;;24.50;59.30;;;;;;10318176;28;20038;-61
2023/06/18 15:44:20;;;;;;;14.25;9.68;;;24.60;60.20;;;;;;10323490;28;20022;-62
2023/06/18 15:49:20;;;;;;;13.40;9.90;;;24.70;61.10;;;;;;10325983;28;20836;-60
2023/06/18 15:54:21;;;;;;;17.98;10.25;;;24.60;62.30;;;;;;10317846;28;20137;-58
2023/06/18 15:59:23;;;;;;;14.75;9.27;;;24.80;60.80;;;;;;10321368;28;20125;-58
2023/06/18 16:04:24;;;;;;;16.73;9.52;;;24.80;63.20;;;;;;10324071;28;20041;-62
2023/06/18 16:09:25;;;;;;;13.07;9.18;;;24.70;63.20;;;;;;10323669;28;20034;-59
2023/06/18 16:14:26;;;;;;;17.27;8.73;;;24.60;63.20;;;;;;10338023;28;20102;-59
2023/06/18 16:19:26;;;;;;;17.50;9.35;;;24.60;63.10;;;;;;10320930;28;20078;-63
2023/06/18 16:24:27;;;;;;;13.23;8.18;;;24.50;63.10;;;;;;10324995;28;20098;-59
2023/06/18 16:29:27;;;;;;;13.30;8.80;;;24.50;62.40;;;;;;10315993;28;20030;-61
2023/06/18 16:34:28;;;;;;;16.23;8.98;;;24.40;62.30;;;;;;10311864;28;20109;-60
2023/06/18 16:39:29;;;;;;;14.38;8.15;;;24.30;62.20;;;;;;10323955;28;20146;-57
2023/06/18 16:44:31;;;;;;;10.95;8.60;;;24.30;62.20;;;;;;10323269;28;20045;-59
2023/06/18 16:49:31;;;;;;;14.93;9.43;;;24.30;62.00;;;;;;10321118;28;20061;-59
2023/06/18 16:54:32;;;;;;;11.50;8.45;;;24.10;61.90;;;;;;10321124;28;20029;-55
2023/06/18 16:59:33;;;;;;;10.70;7.75;;;24.00;62.00;;;;;;10322598;28;20555;-60
2023/06/18 17:04:34;;;;;;;11.50;8.48;;;23.90;61.70;;;;;;10323415;28;20076;-56
2023/06/18 17:09:35;;;;;;;14.50;9.48;;;23.90;61.50;;;;;;10321897;28;20093;-59
2023/06/18 17:14:35;;;;;;;12.77;8.35;;;23.90;61.10;;;;;;10318117;28;20025;-57
2023/06/18 17:19:36;;;;;;;14.20;8.65;;;23.90;61.00;;;;;;10321435;28;20042;-58
2023/06/18 17:24:38;;;;;;;14.25;9.38;;;23.80;60.90;;;;;;10315316;28;20101;-59
2023/06/18 17:29:39;;;;;;;10.27;8.32;;;23.80;60.90;;;;;;10322938;28;20566;-57
2023/06/18 17:34:40;;;;;;;14.85;8.40;;;23.80;61.00;;;;;;10318060;28;20022;-56
2023/06/18 17:39:40;;;;;;;11.82;7.13;;;23.80;60.90;;;;;;10322101;28;20066;-53
2023/06/18 17:44:41;;;;;;;10.68;8.77;;;23.80;61.00;;;;;;10327262;28;20018;-56
2023/06/18 17:49:47;;;;;;;9.57;8.48;;;23.80;60.80;;;;;;10325871;28;20073;-53
2023/06/18 17:54:48;;;;;;;10.60;7.45;;;23.80;61.10;;;;;;10325340;28;20642;-56
2023/06/18 17:59:48;;;;;;;11.00;8.30;;;23.80;61.10;;;;;;10325847;28;20031;-59
2023/06/18 18:04:49;;;;;;;11.55;8.70;;;23.80;61.10;;;;;;10324290;28;20023;-59
2023/06/18 18:09:50;;;;;;;10.38;7.28;;;23.70;61.40;;;;;;10326784;28;20019;-59
2023/06/18 18:14:50;;;;;;;9.70;7.53;;;23.80;61.40;;;;;;10324311;28;20027;-58
2023/06/18 18:19:52;;;;;;;9.68;7.40;;;23.70;61.40;;;;;;10316124;28;20586;-59
2023/06/18 18:24:53;;;;;;;10.15;7.35;;;23.70;61.30;;;;;;10316753;28;20015;-58
2023/06/18 18:29:54;;;;;;;10.82;7.68;;;23.70;61.60;;;;;;10325665;28;20054;-60
2023/06/18 18:34:54;;;;;;;9.23;6.57;;;23.80;61.50;;;;;;10326320;28;20069;-58
2023/06/18 18:39:55;;;;;;;9.07;7.40;;;23.70;61.30;;;;;;10324701;28;20042;-57
2023/06/18 18:44:55;;;;;;;13.05;8.35;;;23.60;61.20;;;;;;10325218;28;20173;-60
2023/06/18 18:49:56;;;;;;;26.23;8.52;;;23.70;61.30;;;;;;10324428;28;20081;-57
2023/06/18 18:54:57;;;;;;;11.60;7.93;;;23.70;61.30;;;;;;10320066;28;20101;-60
2023/06/18 18:59:58;;;;;;;14.90;8.35;;;23.80;61.50;;;;;;10324992;28;20114;-59
2023/06/18 19:04:59;;;;;;;11.80;7.80;;;23.70;61.20;;;;;;10326687;28;20025;-60
2023/06/18 19:10:02;;;;;;;13.80;8.77;;;23.70;61.20;;;;;;10313340;28;20089;-58
2023/06/18 19:15:03;;;;;;;12.07;7.68;;;23.70;61.20;;;;;;10340781;28;20054;-60
2023/06/18 19:20:05;;;;;;;12.05;8.05;;;23.60;61.20;;;;;;10328057;28;20033;-59
2023/06/18 19:25:06;;;;;;;12.02;8.00;;;23.70;61.30;;;;;;10340186;28;20010;-59
2023/06/18 19:30:08;;;;;;;10.13;7.57;;;23.70;61.20;;;;;;10333373;28;20027;-58
2023/06/18 19:35:08;;;;;;;10.68;9.60;;;23.60;61.20;;;;;;10330848;28;20084;-59
2023/06/18 19:40:10;;;;;;;12.10;10.70;;;23.70;61.60;;;;;;10323123;28;20034;-59
2023/06/18 19:45:11;;;;;;;10.57;9.48;;;23.80;61.90;;;;;;10338769;28;20030;-59
2023/06/18 19:50:12;;;;;;;11.52;9.73;;;23.80;61.90;;;;;;10338960;28;20107;-58
2023/06/18 19:55:13;;;;;;;14.48;10.23;;;23.80;61.70;;;;;;10317704;28;20424;-58
2023/06/18 20:00:14;;;;;;;10.75;9.02;;;23.70;61.90;;;;;;10316761;28;20521;-57
2023/06/18 20:05:15;;;;;;;9.20;8.30;;;23.70;61.80;;;;;;10316264;28;20118;-59
2023/06/18 20:10:16;;;;;;;10.45;8.43;;;23.60;61.70;;;;;;10314786;28;20481;-60
2023/06/18 20:15:16;;;;;;;10.93;8.38;;;23.60;61.60;;;;;;10319363;28;20026;-57
2023/06/18 20:20:17;;;;;;;9.13;7.90;;;23.60;61.70;;;;;;10321258;28;20122;-59
2023/06/18 20:25:18;;;;;;;10.70;9.23;;;23.60;61.60;;;;;;10319164;28;20446;-59
2023/06/18 20:30:19;;;;;;;13.32;9.63;;;23.60;61.50;;;;;;10320363;28;20026;-59
2023/06/18 20:35:19;;;;;;;9.75;8.75;;;23.50;61.40;;;;;;10318552;28;20121;-59
2023/06/18 20:40:20;;;;;;;10.02;8.77;;;23.50;61.20;;;;;;10320156;28;20022;-59
2023/06/18 20:45:21;;;;;;;9.40;8.50;;;23.50;61.10;;;;;;10321610;28;20026;-62
2023/06/18 20:50:21;;;;;;;10.50;9.23;;;23.50;61.10;;;;;;10320628;28;20359;-58
2023/06/18 20:55:22;;;;;;;8.82;7.93;;;23.50;60.90;;;;;;10320962;28;20019;-59
2023/06/18 21:00:26;;;;;;;10.15;9.15;;;23.50;61.50;;;;;;10320432;28;20052;-59
2023/06/18 21:05:27;;;;;;;9.32;8.05;;;23.50;60.70;;;;;;10320830;28;20015;-60
2023/06/18 21:10:28;;;;;;;10.07;7.72;;;23.50;60.60;;;;;;10321827;28;20126;-60
2023/06/18 21:15:29;;;;;;;8.82;7.18;;;23.50;60.40;;;;;;10326467;28;20030;-61
2023/06/18 21:20:29;;;;;;;10.00;9.00;;;23.50;60.30;;;;;;10329442;28;20454;-59
2023/06/18 21:25:30;;;;;;;8.90;8.00;;;23.40;60.20;;;;;;10328301;28;20413;-60
2023/06/18 21:30:32;;;;;;;8.93;8.05;;;23.50;60.20;;;;;;10327708;28;20096;-59
2023/06/18 21:35:33;;;;;;;9.55;8.55;;;23.50;60.30;;;;;;10327836;28;20141;-59
2023/06/18 21:40:33;;;;;;;8.80;7.88;;;23.40;60.20;;;;;;10327371;28;20038;-60
2023/06/18 21:45:34;;;;;;;8.07;7.28;;;23.50;60.30;;;;;;10329014;28;20100;-59
2023/06/18 21:50:35;;;;;;;10.43;7.80;;;23.40;60.10;;;;;;10328799;28;20022;-58
2023/06/18 21:55:35;;;;;;;8.57;7.78;;;23.40;60.10;;;;;;10328399;28;20110;-60
2023/06/18 22:00:36;;;;;;;10.98;7.75;;;23.40;60.00;;;;;;10326870;28;20557;-59
2023/06/18 22:05:37;;;;;;;12.57;7.38;;;23.40;60.00;;;;;;10326886;28;20121;-61
2023/06/18 22:10:38;;;;;;;10.75;8.02;;;23.40;59.90;;;;;;10328147;28;20470;-60
2023/06/18 22:15:39;;;;;;;9.75;8.40;;;23.40;59.90;;;;;;10326539;28;20355;-59
2023/06/18 22:20:39;;;;;;;7.78;7.07;;;23.40;59.90;;;;;;10327296;28;20038;-59
2023/06/18 22:25:40;;;;;;;7.93;7.18;;;23.40;59.90;;;;;;10308926;28;20121;-58
2023/06/18 22:30:41;;;;;;;8.65;7.75;;;23.40;59.90;;;;;;10325700;28;20470;-60
2023/06/18 22:35:42;;;;;;;8.20;7.40;;;23.40;59.80;;;;;;10326907;28;20034;-59
2023/06/18 22:40:43;;;;;;;7.68;6.90;;;23.30;59.70;;;;;;10326565;28;20069;-60
2023/06/18 22:45:43;;;;;;;8.10;7.38;;;23.40;59.80;;;;;;10326383;28;20105;-60
2023/06/18 22:50:44;;;;;;;8.82;7.25;;;23.40;59.60;;;;;;10326570;28;20018;-60
2023/06/18 22:55:45;;;;;;;7.38;6.68;;;23.30;59.50;;;;;;10325972;28;20116;-59
2023/06/18 23:00:45;;;;;;;9.50;7.20;;;23.30;59.50;;;;;;10324625;28;20039;-60
2023/06/18 23:05:48;;;;;;;7.63;6.90;;;23.40;59.60;;;;;;10325539;28;20048;-59
2023/06/18 23:10:49;;;;;;;7.75;7.05;;;23.30;59.50;;;;;;10324546;28;20022;-60
2023/06/18 23:15:50;;;;;;;8.63;7.15;;;23.30;59.40;;;;;;10325169;28;20026;-57
2023/06/18 23:20:51;;;;;;;9.13;8.25;;;23.30;59.30;;;;;;10323831;28;20026;-60
2023/06/18 23:25:51;;;;;;;8.05;7.35;;;23.30;59.30;;;;;;10325310;28;20101;-60
2023/06/18 23:30:52;;;;;;;10.90;7.57;;;23.30;59.20;;;;;;10323714;28;20101;-61
2023/06/18 23:35:53;;;;;;;8.25;7.45;;;23.30;59.20;;;;;;10339533;28;20077;-60
2023/06/18 23:40:53;;;;;;;8.80;7.95;;;23.30;59.10;;;;;;10322136;28;20034;-59
2023/06/18 23:45:54;;;;;;;8.38;7.47;;;23.30;59.10;;;;;;10324583;28;20077;-60
2023/06/18 23:50:55;;;;;;;7.28;6.57;;;23.30;59.10;;;;;;10324383;28;20503;-61
2023/06/18 23:55:55;;;;;;;9.45;7.50;;;23.30;59.10;;;;;;10323746;28;20101;-58
